sensor_id;sensor_type;location;lat;lon;timestamp;pressure;altitude;pressure_sealevel;temperature;humidity
57114;BME280;42994;51.606;9.988;2023-06-10T00:00:02;99068.50;;;14.79;100.00
57114;BME280;42994;51.606;9.988;2023-06-10T00:02:38;99064.69;;;14.55;100.00
57114;BME280;42994;51.606;9.988;2023-06-10T00:05:05;99067.72;;;14.72;100.00
57114;BME280;42994;51.606;9.988;2023-06-10T00:07:33;99065.00;;;14.34;100.00
57114;BME280;42994;51.606;9.988;2023-06-10T00:10:03;99068.88;;;14.45;100.00
57114;BME280;42994;51.606;9.988;2023-06-10T00:12:31;99065.09;;;14.59;100.00
57114;BME280;42994;51.606;9.988;2023-06-10T00:15:06;99064.22;;;14.65;100.00
57114;BME280;42994;51.606;9.988;2023-06-10T00:17:34;99070.06;;;14.62;100.00
57114;BME280;42994;51.606;9.988;2023-06-10T00:20:05;99066.41;;;14.43;100.00
57114;BME280;42994;51.606;9.988;2023-06-10T00:22:34;99067.06;;;14.38;100.00
57114;BME280;42994;51.606;9.988;2023-06-10T00:25:01;99067.41;;;14.49;100.00
57114;BME280;42994;51.606;9.988;2023-06-10T00:27:29;99074.25;;;14.51;100.00
57114;BME280;42994;51.606;9.988;2023-06-10T00:30:00;99073.75;;;14.22;100.00
57114;BME280;42994;51.606;9.988;2023-06-10T00:32:28;99069.75;;;14.38;100.00
57114;BME280;42994;51.606;9.988;2023-06-10T00:34:55;99069.59;;;14.20;100.00
57114;BME280;42994;51.606;9.988;2023-06-10T00:37:22;99063.56;;;14.31;100.00
57114;BME280;42994;51.606;9.988;2023-06-10T00:39:49;99064.72;;;13.97;100.00
57114;BME280;42994;51.606;9.988;2023-06-10T00:42:15;99065.66;;;14.22;100.00
57114;BME280;42994;51.606;9.988;2023-06-10T00:44:42;99076.66;;;14.28;100.00
57114;BME280;42994;51.606;9.988;2023-06-10T00:47:09;99076.94;;;14.06;100.00
57114;BME280;42994;51.606;9.988;2023-06-10T00:49:37;99089.34;;;14.14;100.00
57114;BME280;42994;51.606;9.988;2023-06-10T00:52:05;99072.28;;;14.27;100.00
57114;BME280;42994;51.606;9.988;2023-06-10T00:54:33;99073.56;;;14.17;100.00
57114;BME280;42994;51.606;9.988;2023-06-10T00:57:01;99069.59;;;14.20;100.00
57114;BME280;42994;51.606;9.988;2023-06-10T00:59:28;99073.78;;;14.16;100.00
57114;BME280;42994;51.606;9.988;2023-06-10T01:01:56;99076.06;;;14.19;100.00
57114;BME280;42994;51.606;9.988;2023-06-10T01:04:25;99069.56;;;13.75;100.00
57114;BME280;42994;51.606;9.988;2023-06-10T01:06:57;99066.25;;;13.73;100.00
57114;BME280;42994;51.606;9.988;2023-06-10T01:09:32;99062.34;;;13.22;100.00
57114;BME280;42994;51.606;9.988;2023-06-10T01:12:10;99053.44;;;13.15;100.00
57114;BME280;42994;51.606;9.988;2023-06-10T01:14:38;99054.28;;;13.02;100.00
57114;BME280;42994;51.606;9.988;2023-06-10T01:17:10;99056.97;;;13.35;100.00
57114;BME280;42994;51.606;9.988;2023-06-10T01:19:37;99059.84;;;13.60;100.00
57114;BME280;42994;51.606;9.988;2023-06-10T01:22:05;99058.19;;;13.66;100.00
57114;BME280;42994;51.606;9.988;2023-06-10T01:24:32;99063.97;;;13.70;100.00
57114;BME280;42994;51.606;9.988;2023-06-10T01:27:00;99066.66;;;13.70;100.00
57114;BME280;42994;51.606;9.988;2023-06-10T01:29:31;99069.16;;;13.64;100.00
57114;BME280;42994;51.606;9.988;2023-06-10T01:32:05;99068.75;;;13.27;100.00
57114;BME280;42994;51.606;9.988;2023-06-10T01:34:35;99061.06;;;12.84;100.00
57114;BME280;42994;51.606;9.988;2023-06-10T01:37:03;99073.94;;;13.22;100.00
57114;BME280;42994;51.606;9.988;2023-06-10T01:39:32;99064.59;;;13.05;100.00
57114;BME280;42994;51.606;9.988;2023-06-10T01:42:00;99067.94;;;13.20;100.00
57114;BME280;42994;51.606;9.988;2023-06-10T01:44:29;99073.78;;;13.31;100.00
57114;BME280;42994;51.606;9.988;2023-06-10T01:46:55;99071.69;;;13.33;100.00
57114;BME280;42994;51.606;9.988;2023-06-10T01:49:22;99075.59;;;13.17;100.00
57114;BME280;42994;51.606;9.988;2023-06-10T01:51:49;99068.75;;;13.07;100.00
57114;BME280;42994;51.606;9.988;2023-06-10T01:54:16;99069.16;;;12.78;100.00
57114;BME280;42994;51.606;9.988;2023-06-10T01:56:44;99064.19;;;12.88;100.00
57114;BME280;42994;51.606;9.988;2023-06-10T01:59:11;99053.63;;;12.80;100.00
57114;BME280;42994;51.606;9.988;2023-06-10T02:01:37;99069.16;;;13.04;100.00
57114;BME280;42994;51.606;9.988;2023-06-10T02:04:04;99069.38;;;13.16;100.00
57114;BME280;42994;51.606;9.988;2023-06-10T02:06:31;99073.50;;;13.12;100.00
57114;BME280;42994;51.606;9.988;2023-06-10T02:08:57;99080.97;;;13.10;100.00
57114;BME280;42994;51.606;9.988;2023-06-10T02:11:26;99076.72;;;12.47;100.00
57114;BME280;42994;51.606;9.988;2023-06-10T02:13:54;99075.34;;;12.85;100.00
57114;BME280;42994;51.606;9.988;2023-06-10T02:16:21;99073.91;;;12.96;100.00
57114;BME280;42994;51.606;9.988;2023-06-10T02:18:47;99081.56;;;12.92;100.00
57114;BME280;42994;51.606;9.988;2023-06-10T02:21:14;99086.34;;;13.03;100.00
57114;BME280;42994;51.606;9.988;2023-06-10T02:23:41;99087.78;;;12.99;100.00
57114;BME280;42994;51.606;9.988;2023-06-10T02:26:08;99098.97;;;12.96;100.00
57114;BME280;42994;51.606;9.988;2023-06-10T02:28:34;99097.72;;;12.99;100.00
57114;BME280;42994;51.606;9.988;2023-06-10T02:31:02;99092.72;;;12.69;100.00
57114;BME280;42994;51.606;9.988;2023-06-10T02:33:29;99098.72;;;12.84;100.00
57114;BME280;42994;51.606;9.988;2023-06-10T02:35:56;99090.66;;;12.71;100.00
57114;BME280;42994;51.606;9.988;2023-06-10T02:38:25;99088.00;;;12.16;100.00
57114;BME280;42994;51.606;9.988;2023-06-10T02:40:52;99095.56;;;12.06;100.00
57114;BME280;42994;51.606;9.988;2023-06-10T02:43:19;99081.31;;;11.70;100.00
57114;BME280;42994;51.606;9.988;2023-06-10T02:45:47;99077.25;;;11.81;100.00
57114;BME280;42994;51.606;9.988;2023-06-10T02:48:16;99088.47;;;12.33;100.00
57114;BME280;42994;51.606;9.988;2023-06-10T02:50:43;99095.75;;;12.46;100.00
57114;BME280;42994;51.606;9.988;2023-06-10T02:53:28;99100.09;;;12.54;100.00
57114;BME280;42994;51.606;9.988;2023-06-10T02:56:23;99108.16;;;12.54;100.00
57114;BME280;42994;51.606;9.988;2023-06-10T02:59:41;99095.94;;;12.44;100.00
57114;BME280;42994;51.606;9.988;2023-06-10T03:02:17;99103.38;;;12.42;100.00
57114;BME280;42994;51.606;9.988;2023-06-10T03:04:59;99114.53;;;12.33;100.00
57114;BME280;42994;51.606;9.988;2023-06-10T03:07:52;99111.16;;;11.89;100.00
57114;BME280;42994;51.606;9.988;2023-06-10T03:10:39;99078.00;;;11.40;100.00
57114;BME280;42994;51.606;9.988;2023-06-10T03:13:21;99084.31;;;11.89;100.00
57114;BME280;42994;51.606;9.988;2023-06-10T03:15:53;99085.09;;;12.18;100.00
57114;BME280;42994;51.606;9.988;2023-06-10T03:18:29;99097.13;;;12.28;100.00
57114;BME280;42994;51.606;9.988;2023-06-10T03:21:03;99108.31;;;12.39;100.00
57114;BME280;42994;51.606;9.988;2023-06-10T03:23:30;99105.59;;;12.25;100.00
57114;BME280;42994;51.606;9.988;2023-06-10T03:25:57;99105.63;;;12.32;100.00
57114;BME280;42994;51.606;9.988;2023-06-10T03:28:24;99104.47;;;12.06;100.00
57114;BME280;42994;51.606;9.988;2023-06-10T03:30:52;99101.66;;;12.28;100.00
57114;BME280;42994;51.606;9.988;2023-06-10T03:33:21;99099.59;;;12.30;100.00
57114;BME280;42994;51.606;9.988;2023-06-10T03:35:48;99099.97;;;12.20;100.00
57114;BME280;42994;51.606;9.988;2023-06-10T03:38:16;99104.50;;;12.13;100.00
57114;BME280;42994;51.606;9.988;2023-06-10T03:40:43;99087.50;;;12.06;100.00
57114;BME280;42994;51.606;9.988;2023-06-10T03:43:10;99095.22;;;12.22;100.00
57114;BME280;42994;51.606;9.988;2023-06-10T03:45:37;99096.28;;;12.21;100.00
57114;BME280;42994;51.606;9.988;2023-06-10T03:48:04;99081.00;;;11.87;100.00
57114;BME280;42994;51.606;9.988;2023-06-10T03:50:41;99079.25;;;12.07;100.00
57114;BME280;42994;51.606;9.988;2023-06-10T03:53:07;99071.25;;;11.86;100.00
57114;BME280;42994;51.606;9.988;2023-06-10T03:55:37;99072.53;;;11.90;100.00
57114;BME280;42994;51.606;9.988;2023-06-10T03:58:04;99062.19;;;11.87;100.00
57114;BME280;42994;51.606;9.988;2023-06-10T04:00:30;99066.91;;;12.20;100.00
57114;BME280;42994;51.606;9.988;2023-06-10T04:03:06;99077.63;;;12.13;100.00
57114;BME280;42994;51.606;9.988;2023-06-10T04:05:37;99084.69;;;12.21;100.00
57114;BME280;42994;51.606;9.988;2023-06-10T04:08:03;99068.69;;;11.99;100.00
57114;BME280;42994;51.606;9.988;2023-06-10T04:10:30;99064.97;;;12.00;100.00
57114;BME280;42994;51.606;9.988;2023-06-10T04:12:58;99061.16;;;12.29;100.00
57114;BME280;42994;51.606;9.988;2023-06-10T04:15:29;99083.13;;;12.40;100.00
57114;BME280;42994;51.606;9.988;2023-06-10T04:17:58;99073.34;;;12.25;100.00
57114;BME280;42994;51.606;9.988;2023-06-10T04:20:26;99068.84;;;12.46;100.00
57114;BME280;42994;51.606;9.988;2023-06-10T04:22:53;99079.22;;;12.56;100.00
57114;BME280;42994;51.606;9.988;2023-06-10T04:25:19;99081.09;;;12.62;100.00
57114;BME280;42994;51.606;9.988;2023-06-10T04:27:48;99076.75;;;12.54;100.00
57114;BME280;42994;51.606;9.988;2023-06-10T04:30:16;99077.59;;;12.68;100.00
57114;BME280;42994;51.606;9.988;2023-06-10T04:32:43;99066.63;;;12.56;100.00
57114;BME280;42994;51.606;9.988;2023-06-10T04:35:15;99062.72;;;12.79;100.00
57114;BME280;42994;51.606;9.988;2023-06-10T04:37:42;99061.25;;;12.69;100.00
57114;BME280;42994;51.606;9.988;2023-06-10T04:40:10;99055.06;;;12.82;100.00
57114;BME280;42994;51.606;9.988;2023-06-10T04:42:37;99064.84;;;13.23;100.00
57114;BME280;42994;51.606;9.988;2023-06-10T04:45:05;99079.31;;;13.29;100.00
57114;BME280;42994;51.606;9.988;2023-06-10T04:47:34;99090.94;;;13.36;100.00
57114;BME280;42994;51.606;9.988;2023-06-10T04:50:01;99092.38;;;13.52;100.00
57114;BME280;42994;51.606;9.988;2023-06-10T04:52:29;99100.00;;;13.69;100.00
57114;BME280;42994;51.606;9.988;2023-06-10T04:54:57;99093.38;;;13.78;100.00
57114;BME280;42994;51.606;9.988;2023-06-10T04:57:23;99093.25;;;14.18;100.00
57114;BME280;42994;51.606;9.988;2023-06-10T04:59:51;99101.78;;;14.15;100.00
57114;BME280;42994;51.606;9.988;2023-06-10T05:02:18;99095.13;;;14.24;100.00
57114;BME280;42994;51.606;9.988;2023-06-10T05:04:46;99101.47;;;14.36;100.00
57114;BME280;42994;51.606;9.988;2023-06-10T05:07:13;99107.81;;;14.03;100.00
57114;BME280;42994;51.606;9.988;2023-06-10T05:09:39;99109.28;;;13.99;100.00
57114;BME280;42994;51.606;9.988;2023-06-10T05:12:07;99119.66;;;13.96;100.00
57114;BME280;42994;51.606;9.988;2023-06-10T05:14:34;99125.59;;;14.18;100.00
57114;BME280;42994;51.606;9.988;2023-06-10T05:17:00;99128.47;;;14.30;100.00
57114;BME280;42994;51.606;9.988;2023-06-10T05:19:27;99123.34;;;14.15;100.00
57114;BME280;42994;51.606;9.988;2023-06-10T05:21:55;99130.56;;;14.21;100.00
57114;BME280;42994;51.606;9.988;2023-06-10T05:24:21;99130.09;;;14.37;100.00
57114;BME280;42994;51.606;9.988;2023-06-10T05:26:48;99139.94;;;14.77;100.00
57114;BME280;42994;51.606;9.988;2023-06-10T05:29:15;99139.81;;;15.54;100.00
57114;BME280;42994;51.606;9.988;2023-06-10T05:31:42;99146.50;;;14.88;100.00
57114;BME280;42994;51.606;9.988;2023-06-10T05:34:08;99147.66;;;15.37;100.00
57114;BME280;42994;51.606;9.988;2023-06-10T05:36:35;99142.63;;;14.77;100.00
57114;BME280;42994;51.606;9.988;2023-06-10T05:39:03;99142.25;;;14.67;100.00
57114;BME280;42994;51.606;9.988;2023-06-10T05:41:29;99148.50;;;14.54;100.00
57114;BME280;42994;51.606;9.988;2023-06-10T05:43:56;99143.06;;;14.74;100.00
57114;BME280;42994;51.606;9.988;2023-06-10T05:46:23;99138.03;;;14.84;100.00
57114;BME280;42994;51.606;9.988;2023-06-10T05:48:49;99143.41;;;15.16;100.00
57114;BME280;42994;51.606;9.988;2023-06-10T05:51:16;99147.34;;;15.77;100.00
57114;BME280;42994;51.606;9.988;2023-06-10T05:53:43;99144.34;;;16.04;100.00
57114;BME280;42994;51.606;9.988;2023-06-10T05:56:13;99141.03;;;15.83;100.00
57114;BME280;42994;51.606;9.988;2023-06-10T05:58:39;99139.69;;;15.42;100.00
57114;BME280;42994;51.606;9.988;2023-06-10T06:01:06;99137.41;;;15.14;100.00
57114;BME280;42994;51.606;9.988;2023-06-10T06:03:33;99136.75;;;15.75;100.00
57114;BME280;42994;51.606;9.988;2023-06-10T06:05:59;99145.06;;;16.66;100.00
57114;BME280;42994;51.606;9.988;2023-06-10T06:08:26;99150.47;;;16.36;100.00
57114;BME280;42994;51.606;9.988;2023-06-10T06:10:52;99147.09;;;15.79;100.00
57114;BME280;42994;51.606;9.988;2023-06-10T06:13:20;99148.31;;;15.83;100.00
57114;BME280;42994;51.606;9.988;2023-06-10T06:15:47;99156.56;;;16.80;100.00
57114;BME280;42994;51.606;9.988;2023-06-10T06:18:14;99158.00;;;17.43;100.00
57114;BME280;42994;51.606;9.988;2023-06-10T06:20:40;99156.63;;;17.88;100.00
57114;BME280;42994;51.606;9.988;2023-06-10T06:23:07;99154.50;;;17.90;100.00
57114;BME280;42994;51.606;9.988;2023-06-10T06:25:35;99163.09;;;18.22;100.00
57114;BME280;42994;51.606;9.988;2023-06-10T06:28:04;99155.09;;;17.26;100.00
57114;BME280;42994;51.606;9.988;2023-06-10T06:30:32;99150.41;;;16.73;100.00
57114;BME280;42994;51.606;9.988;2023-06-10T06:32:58;99161.88;;;17.47;100.00
57114;BME280;42994;51.606;9.988;2023-06-10T06:35:25;99154.38;;;18.20;100.00
57114;BME280;42994;51.606;9.988;2023-06-10T06:37:52;99151.44;;;17.21;100.00
57114;BME280;42994;51.606;9.988;2023-06-10T06:40:24;99154.09;;;16.79;100.00
57114;BME280;42994;51.606;9.988;2023-06-10T06:42:51;99155.59;;;17.23;100.00
57114;BME280;42994;51.606;9.988;2023-06-10T06:45:37;99157.03;;;17.49;100.00
57114;BME280;42994;51.606;9.988;2023-06-10T06:48:05;99151.19;;;17.10;100.00
57114;BME280;42994;51.606;9.988;2023-06-10T06:50:31;99155.59;;;16.93;100.00
57114;BME280;42994;51.606;9.988;2023-06-10T06:52:58;99149.00;;;16.89;100.00
57114;BME280;42994;51.606;9.988;2023-06-10T06:55:25;99147.25;;;17.48;100.00
57114;BME280;42994;51.606;9.988;2023-06-10T06:57:51;99150.97;;;18.66;100.00
57114;BME280;42994;51.606;9.988;2023-06-10T07:00:18;99154.81;;;17.58;100.00
57114;BME280;42994;51.606;9.988;2023-06-10T07:02:46;99162.72;;;17.60;100.00
57114;BME280;42994;51.606;9.988;2023-06-10T07:05:13;99162.22;;;17.51;100.00
57114;BME280;42994;51.606;9.988;2023-06-10T07:07:40;99160.41;;;17.99;100.00
57114;BME280;42994;51.606;9.988;2023-06-10T07:10:07;99166.50;;;19.11;100.00
57114;BME280;42994;51.606;9.988;2023-06-10T07:12:34;99172.41;;;20.21;100.00
57114;BME280;42994;51.606;9.988;2023-06-10T07:15:00;99176.28;;;18.95;100.00
57114;BME280;42994;51.606;9.988;2023-06-10T07:17:27;99176.38;;;19.46;100.00
57114;BME280;42994;51.606;9.988;2023-06-10T07:19:55;99183.03;;;18.28;100.00
57114;BME280;42994;51.606;9.988;2023-06-10T07:22:23;99179.06;;;18.59;100.00
57114;BME280;42994;51.606;9.988;2023-06-10T07:24:49;99179.78;;;19.87;100.00
57114;BME280;42994;51.606;9.988;2023-06-10T07:27:17;99179.53;;;19.71;100.00
57114;BME280;42994;51.606;9.988;2023-06-10T07:29:43;99180.94;;;21.18;100.00
57114;BME280;42994;51.606;9.988;2023-06-10T07:32:10;99187.84;;;21.53;100.00
57114;BME280;42994;51.606;9.988;2023-06-10T07:34:36;99191.44;;;20.82;100.00
57114;BME280;42994;51.606;9.988;2023-06-10T07:37:05;99188.66;;;21.26;100.00
57114;BME280;42994;51.606;9.988;2023-06-10T07:39:32;99188.16;;;20.80;100.00
57114;BME280;42994;51.606;9.988;2023-06-10T07:41:58;99186.50;;;21.88;100.00
57114;BME280;42994;51.606;9.988;2023-06-10T07:44:25;99181.09;;;21.06;100.00
57114;BME280;42994;51.606;9.988;2023-06-10T07:46:52;99181.94;;;21.66;100.00
57114;BME280;42994;51.606;9.988;2023-06-10T07:49:19;99192.16;;;22.19;100.00
57114;BME280;42994;51.606;9.988;2023-06-10T07:51:45;99186.09;;;21.69;100.00
57114;BME280;42994;51.606;9.988;2023-06-10T07:54:13;99180.53;;;22.34;100.00
57114;BME280;42994;51.606;9.988;2023-06-10T07:56:40;99174.63;;;22.57;100.00
57114;BME280;42994;51.606;9.988;2023-06-10T07:59:06;99181.31;;;22.82;100.00
57114;BME280;42994;51.606;9.988;2023-06-10T08:01:33;99180.97;;;22.68;100.00
57114;BME280;42994;51.606;9.988;2023-06-10T08:04:01;99168.00;;;23.21;100.00
57114;BME280;42994;51.606;9.988;2023-06-10T08:06:28;99180.38;;;22.13;100.00
57114;BME280;42994;51.606;9.988;2023-06-10T08:08:54;99171.88;;;23.20;100.00
57114;BME280;42994;51.606;9.988;2023-06-10T08:11:22;99169.66;;;23.17;100.00
57114;BME280;42994;51.606;9.988;2023-06-10T08:13:49;99172.31;;;22.92;100.00
57114;BME280;42994;51.606;9.988;2023-06-10T08:16:16;99173.00;;;23.60;100.00
57114;BME280;42994;51.606;9.988;2023-06-10T08:18:43;99181.94;;;22.41;100.00
57114;BME280;42994;51.606;9.988;2023-06-10T08:21:09;99170.47;;;22.44;100.00
57114;BME280;42994;51.606;9.988;2023-06-10T08:23:36;99179.81;;;23.53;100.00
57114;BME280;42994;51.606;9.988;2023-06-10T08:26:03;99169.72;;;23.58;100.00
57114;BME280;42994;51.606;9.988;2023-06-10T08:28:31;99180.44;;;22.71;100.00
57114;BME280;42994;51.606;9.988;2023-06-10T08:30:57;99174.09;;;23.65;100.00
57114;BME280;42994;51.606;9.988;2023-06-10T08:33:24;99176.84;;;23.85;100.00
57114;BME280;42994;51.606;9.988;2023-06-10T08:35:50;99177.19;;;22.84;100.00
57114;BME280;42994;51.606;9.988;2023-06-10T08:38:17;99173.25;;;23.59;100.00
57114;BME280;42994;51.606;9.988;2023-06-10T08:40:44;99174.63;;;23.56;100.00
57114;BME280;42994;51.606;9.988;2023-06-10T08:43:17;99178.88;;;23.01;100.00
57114;BME280;42994;51.606;9.988;2023-06-10T08:45:51;99174.63;;;23.92;100.00
57114;BME280;42994;51.606;9.988;2023-06-10T08:48:22;99165.56;;;24.07;100.00
57114;BME280;42994;51.606;9.988;2023-06-10T08:50:51;99171.06;;;25.43;100.00
57114;BME280;42994;51.606;9.988;2023-06-10T08:53:18;99169.41;;;23.34;100.00
57114;BME280;42994;51.606;9.988;2023-06-10T08:55:49;99168.59;;;23.18;100.00
57114;BME280;42994;51.606;9.988;2023-06-10T08:58:17;99163.63;;;24.18;100.00
57114;BME280;42994;51.606;9.988;2023-06-10T09:00:44;99158.72;;;24.15;100.00
57114;BME280;42994;51.606;9.988;2023-06-10T09:03:13;99158.19;;;23.97;100.00
57114;BME280;42994;51.606;9.988;2023-06-10T09:05:40;99163.94;;;23.45;100.00
57114;BME280;42994;51.606;9.988;2023-06-10T09:08:08;99167.06;;;24.70;100.00
57114;BME280;42994;51.606;9.988;2023-06-10T09:10:35;99159.44;;;24.56;100.00
57114;BME280;42994;51.606;9.988;2023-06-10T09:13:02;99164.06;;;22.76;100.00
57114;BME280;42994;51.606;9.988;2023-06-10T09:15:28;99172.59;;;22.95;100.00
57114;BME280;42994;51.606;9.988;2023-06-10T09:17:55;99167.94;;;25.10;100.00
57114;BME280;42994;51.606;9.988;2023-06-10T09:20:23;99164.78;;;23.60;100.00
57114;BME280;42994;51.606;9.988;2023-06-10T09:22:50;99164.78;;;23.50;100.00
57114;BME280;42994;51.606;9.988;2023-06-10T09:25:17;99174.38;;;22.59;100.00
57114;BME280;42994;51.606;9.988;2023-06-10T09:27:45;99160.09;;;23.25;100.00
57114;BME280;42994;51.606;9.988;2023-06-10T09:30:33;99165.31;;;24.04;100.00
57114;BME280;42994;51.606;9.988;2023-06-10T09:33:02;99152.72;;;23.67;100.00
57114;BME280;42994;51.606;9.988;2023-06-10T09:35:30;99158.47;;;23.34;100.00
57114;BME280;42994;51.606;9.988;2023-06-10T09:37:59;99162.56;;;23.21;100.00
57114;BME280;42994;51.606;9.988;2023-06-10T09:40:26;99163.56;;;22.95;100.00
57114;BME280;42994;51.606;9.988;2023-06-10T09:42:55;99157.16;;;22.58;100.00
57114;BME280;42994;51.606;9.988;2023-06-10T09:45:23;99156.53;;;24.07;100.00
57114;BME280;42994;51.606;9.988;2023-06-10T09:47:53;99150.88;;;24.73;100.00
57114;BME280;42994;51.606;9.988;2023-06-10T09:50:21;99161.44;;;23.12;100.00
57114;BME280;42994;51.606;9.988;2023-06-10T09:52:50;99157.13;;;23.83;100.00
57114;BME280;42994;51.606;9.988;2023-06-10T09:55:17;99160.41;;;23.59;100.00
57114;BME280;42994;51.606;9.988;2023-06-10T09:57:44;99147.81;;;23.43;100.00
57114;BME280;42994;51.606;9.988;2023-06-10T10:00:15;99157.38;;;23.56;100.00
57114;BME280;42994;51.606;9.988;2023-06-10T10:02:46;99159.31;;;23.86;100.00
57114;BME280;42994;51.606;9.988;2023-06-10T10:05:14;99153.00;;;23.70;100.00
57114;BME280;42994;51.606;9.988;2023-06-10T10:07:41;99153.00;;;23.60;100.00
57114;BME280;42994;51.606;9.988;2023-06-10T10:10:10;99158.06;;;24.59;100.00
57114;BME280;42994;51.606;9.988;2023-06-10T10:12:38;99141.19;;;26.00;100.00
57114;BME280;42994;51.606;9.988;2023-06-10T10:15:06;99149.94;;;25.73;99.33
57114;BME280;42994;51.606;9.988;2023-06-10T10:17:34;99150.19;;;26.30;97.15
57114;BME280;42994;51.606;9.988;2023-06-10T10:20:03;99148.00;;;25.73;97.40
57114;BME280;42994;51.606;9.988;2023-06-10T10:22:35;99149.81;;;25.54;95.30
57114;BME280;42994;51.606;9.988;2023-06-10T10:25:09;99144.50;;;25.28;100.00
57114;BME280;42994;51.606;9.988;2023-06-10T10:27:41;99146.00;;;26.13;100.00
57114;BME280;42994;51.606;9.988;2023-06-10T10:30:11;99150.38;;;26.14;96.09
57114;BME280;42994;51.606;9.988;2023-06-10T10:32:45;99144.19;;;26.03;100.00
57114;BME280;42994;51.606;9.988;2023-06-10T10:35:21;99150.69;;;25.04;100.00
57114;BME280;42994;51.606;9.988;2023-06-10T10:37:51;99140.56;;;26.56;98.20
57114;BME280;42994;51.606;9.988;2023-06-10T10:40:20;99136.34;;;26.64;93.71
57114;BME280;42994;51.606;9.988;2023-06-10T10:42:48;99140.28;;;25.06;100.00
57114;BME280;42994;51.606;9.988;2023-06-10T10:45:15;99138.91;;;24.44;100.00
57114;BME280;42994;51.606;9.988;2023-06-10T10:47:43;99142.84;;;24.17;100.00
57114;BME280;42994;51.606;9.988;2023-06-10T10:50:15;99131.81;;;24.37;100.00
57114;BME280;42994;51.606;9.988;2023-06-10T10:52:52;99138.22;;;24.83;100.00
57114;BME280;42994;51.606;9.988;2023-06-10T10:55:21;99137.28;;;25.42;100.00
57114;BME280;42994;51.606;9.988;2023-06-10T10:57:55;99133.84;;;24.77;100.00
57114;BME280;42994;51.606;9.988;2023-06-10T11:00:29;99131.22;;;24.46;100.00
57114;BME280;42994;51.606;9.988;2023-06-10T11:03:04;99126.72;;;25.89;100.00
57114;BME280;42994;51.606;9.988;2023-06-10T11:05:37;99136.53;;;24.87;100.00
57114;BME280;42994;51.606;9.988;2023-06-10T11:08:05;99121.22;;;25.25;100.00
57114;BME280;42994;51.606;9.988;2023-06-10T11:10:33;99124.56;;;24.72;100.00
57114;BME280;42994;51.606;9.988;2023-06-10T11:13:05;99112.78;;;24.67;100.00
57114;BME280;42994;51.606;9.988;2023-06-10T11:15:33;99121.09;;;26.28;98.63
57114;BME280;42994;51.606;9.988;2023-06-10T11:18:10;99122.75;;;26.73;92.18
57114;BME280;42994;51.606;9.988;2023-06-10T11:21:00;99109.47;;;26.99;91.93
57114;BME280;42994;51.606;9.988;2023-06-10T11:23:46;99102.09;;;27.32;89.03
57114;BME280;42994;51.606;9.988;2023-06-10T11:26:16;99104.25;;;27.35;91.36
57114;BME280;42994;51.606;9.988;2023-06-10T11:29:08;99103.38;;;27.02;91.71
57114;BME280;42994;51.606;9.988;2023-06-10T11:31:40;99103.34;;;27.73;88.05
57114;BME280;42994;51.606;9.988;2023-06-10T11:34:08;99101.50;;;27.35;82.65
57114;BME280;42994;51.606;9.988;2023-06-10T11:36:37;99100.38;;;27.36;82.12
57114;BME280;42994;51.606;9.988;2023-06-10T11:39:06;99093.00;;;27.65;77.38
57114;BME280;42994;51.606;9.988;2023-06-10T11:41:35;99087.50;;;27.65;76.45
57114;BME280;42994;51.606;9.988;2023-06-10T11:44:03;99087.50;;;27.65;71.81
57114;BME280;42994;51.606;9.988;2023-06-10T11:46:30;99090.63;;;27.58;72.27
57114;BME280;42994;51.606;9.988;2023-06-10T11:48:57;99092.56;;;27.57;77.97
57114;BME280;42994;51.606;9.988;2023-06-10T11:51:25;99098.63;;;27.87;77.10
57114;BME280;42994;51.606;9.988;2023-06-10T11:53:53;99087.56;;;28.20;77.65
57114;BME280;42994;51.606;9.988;2023-06-10T11:56:20;99090.41;;;27.40;71.67
57114;BME280;42994;51.606;9.988;2023-06-10T11:58:52;99102.25;;;27.03;75.82
57114;BME280;42994;51.606;9.988;2023-06-10T12:01:20;99093.97;;;27.03;76.53
57114;BME280;42994;51.606;9.988;2023-06-10T12:03:47;99094.31;;;27.53;76.06
57114;BME280;42994;51.606;9.988;2023-06-10T12:06:14;99084.53;;;27.61;74.35
57114;BME280;42994;51.606;9.988;2023-06-10T12:08:42;99090.38;;;27.87;74.70
57114;BME280;42994;51.606;9.988;2023-06-10T12:11:09;99088.41;;;27.60;73.98
57114;BME280;42994;51.606;9.988;2023-06-10T12:13:36;99088.69;;;27.91;76.47
57114;BME280;42994;51.606;9.988;2023-06-10T12:16:08;99091.31;;;27.83;76.20
57114;BME280;42994;51.606;9.988;2023-06-10T12:18:35;99087.66;;;28.29;76.55
57114;BME280;42994;51.606;9.988;2023-06-10T12:21:02;99087.19;;;27.66;76.34
57114;BME280;42994;51.606;9.988;2023-06-10T12:23:29;99092.53;;;26.73;76.71
57114;BME280;42994;51.606;9.988;2023-06-10T12:25:57;99090.59;;;27.25;77.77
57114;BME280;42994;51.606;9.988;2023-06-10T12:28:26;99089.91;;;27.99;75.07
57114;BME280;42994;51.606;9.988;2023-06-10T12:31:06;99091.53;;;28.00;73.22
57114;BME280;42994;51.606;9.988;2023-06-10T12:33:34;99081.50;;;27.76;71.16
57114;BME280;42994;51.606;9.988;2023-06-10T12:36:00;99081.75;;;27.94;72.45
57114;BME280;42994;51.606;9.988;2023-06-10T12:38:27;99085.41;;;27.89;72.25
57114;BME280;42994;51.606;9.988;2023-06-10T12:40:54;99072.16;;;28.19;69.07
57114;BME280;42994;51.606;9.988;2023-06-10T12:43:27;99074.81;;;28.10;69.93
57114;BME280;42994;51.606;9.988;2023-06-10T12:45:54;99082.91;;;27.60;71.74
57114;BME280;42994;51.606;9.988;2023-06-10T12:48:23;99076.41;;;27.84;71.25
57114;BME280;42994;51.606;9.988;2023-06-10T12:50:52;99080.75;;;27.57;75.98
57114;BME280;42994;51.606;9.988;2023-06-10T12:53:20;99089.16;;;27.33;72.95
57114;BME280;42994;51.606;9.988;2023-06-10T12:55:48;99076.53;;;27.13;73.45
57114;BME280;42994;51.606;9.988;2023-06-10T12:58:15;99075.00;;;27.39;72.09
57114;BME280;42994;51.606;9.988;2023-06-10T13:00:42;99072.63;;;27.66;72.25